sensor_id;sensor_type;location;lat;lon;timestamp;pressure;altitude;pressure_sealevel;temperature;humidity
47430;BME280;33181;49.246;7.372;2023-04-10T00:02:19;99374.22;;;6.40;71.32
47430;BME280;33181;49.246;7.372;2023-04-10T00:04:45;99375.78;;;6.43;71.47
47430;BME280;33181;49.246;7.372;2023-04-10T00:07:11;99384.38;;;6.45;71.45
47430;BME280;33181;49.246;7.372;2023-04-10T00:09:37;99385.31;;;6.44;71.30
47430;BME280;33181;49.246;7.372;2023-04-10T00:12:03;99379.31;;;6.42;71.26
47430;BME280;33181;49.246;7.372;2023-04-10T00:14:29;99383.72;;;6.41;70.94
47430;BME280;33181;49.246;7.372;2023-04-10T00:16:54;99378.66;;;6.38;70.99
47430;BME280;33181;49.246;7.372;2023-04-10T00:19:20;99381.25;;;6.38;70.93
47430;BME280;33181;49.246;7.372;2023-04-10T00:21:46;99386.81;;;6.32;70.86
47430;BME280;33181;49.246;7.372;2023-04-10T00:24:12;99382.91;;;6.23;71.12
47430;BME280;33181;49.246;7.372;2023-04-10T00:26:39;99386.31;;;6.08;71.62
47430;BME280;33181;49.246;7.372;2023-04-10T00:29:05;99381.75;;;5.96;72.34
47430;BME280;33181;49.246;7.372;2023-04-10T00:31:31;99378.28;;;5.95;72.40
47430;BME280;33181;49.246;7.372;2023-04-10T00:33:57;99381.00;;;5.94;72.51
47430;BME280;33181;49.246;7.372;2023-04-10T00:36:22;99381.63;;;5.80;72.91
47430;BME280;33181;49.246;7.372;2023-04-10T00:38:48;99375.63;;;5.62;73.88
47430;BME280;33181;49.246;7.372;2023-04-10T00:41:15;99377.53;;;5.58;73.65
47430;BME280;33181;49.246;7.372;2023-04-10T00:43:42;99382.97;;;5.54;74.13
47430;BME280;33181;49.246;7.372;2023-04-10T00:46:09;99374.09;;;5.58;74.48
47430;BME280;33181;49.246;7.372;2023-04-10T00:48:35;99374.53;;;5.66;73.94
47430;BME280;33181;49.246;7.372;2023-04-10T00:51:02;99363.88;;;5.71;74.00
47430;BME280;33181;49.246;7.372;2023-04-10T00:53:28;99361.34;;;5.69;73.56
47430;BME280;33181;49.246;7.372;2023-04-10T00:55:55;99347.47;;;5.69;73.58
47430;BME280;33181;49.246;7.372;2023-04-10T00:58:21;99339.03;;;5.64;73.61
47430;BME280;33181;49.246;7.372;2023-04-10T01:00:47;99337.38;;;5.63;73.72
47430;BME280;33181;49.246;7.372;2023-04-10T01:03:15;99340.66;;;5.66;73.42
47430;BME280;33181;49.246;7.372;2023-04-10T01:06:29;99345.03;;;5.66;73.48
47430;BME280;33181;49.246;7.372;2023-04-10T01:09:24;99341.72;;;5.62;73.65
47430;BME280;33181;49.246;7.372;2023-04-10T01:12:14;99342.03;;;5.56;73.59
47430;BME280;33181;49.246;7.372;2023-04-10T01:15:28;99349.78;;;5.57;74.26
47430;BME280;33181;49.246;7.372;2023-04-10T01:18:08;99338.75;;;5.52;73.95
47430;BME280;33181;49.246;7.372;2023-04-10T01:20:37;99350.84;;;5.53;73.95
47430;BME280;33181;49.246;7.372;2023-04-10T01:23:46;99346.56;;;5.52;74.08
47430;BME280;33181;49.246;7.372;2023-04-10T01:29:05;99362.34;;;5.49;73.58
47430;BME280;33181;49.246;7.372;2023-04-10T01:31:43;99351.78;;;5.52;74.79
47430;BME280;33181;49.246;7.372;2023-04-10T01:34:19;99357.00;;;5.52;74.35
47430;BME280;33181;49.246;7.372;2023-04-10T01:36:56;99358.81;;;5.50;74.14
47430;BME280;33181;49.246;7.372;2023-04-10T01:39:25;99364.97;;;5.49;74.08
47430;BME280;33181;49.246;7.372;2023-04-10T01:41:53;99357.69;;;5.56;74.06
47430;BME280;33181;49.246;7.372;2023-04-10T01:44:24;99350.44;;;5.61;73.42
47430;BME280;33181;49.246;7.372;2023-04-10T01:46:53;99355.75;;;5.60;73.31
47430;BME280;33181;49.246;7.372;2023-04-10T01:49:20;99349.72;;;5.59;73.53
47430;BME280;33181;49.246;7.372;2023-04-10T01:51:48;99347.84;;;5.61;72.93
47430;BME280;33181;49.246;7.372;2023-04-10T01:54:16;99349.25;;;5.51;73.50
47430;BME280;33181;49.246;7.372;2023-04-10T01:56:42;99336.91;;;5.37;74.01
47430;BME280;33181;49.246;7.372;2023-04-10T01:59:08;99343.22;;;5.33;74.21
47430;BME280;33181;49.246;7.372;2023-04-10T02:01:34;99342.44;;;5.31;74.37
47430;BME280;33181;49.246;7.372;2023-04-10T02:04:01;99329.41;;;5.31;74.05
47430;BME280;33181;49.246;7.372;2023-04-10T02:12:04;99321.28;;;5.20;74.74
47430;BME280;33181;49.246;7.372;2023-04-10T02:14:34;99315.22;;;5.19;74.56
47430;BME280;33181;49.246;7.372;2023-04-10T02:17:01;99317.06;;;5.17;75.27
47430;BME280;33181;49.246;7.372;2023-04-10T02:19:29;99316.94;;;5.20;75.30
47430;BME280;33181;49.246;7.372;2023-04-10T02:21:56;99304.50;;;5.25;75.00
47430;BME280;33181;49.246;7.372;2023-04-10T02:24:23;99303.34;;;5.31;75.00
47430;BME280;33181;49.246;7.372;2023-04-10T02:26:52;99296.63;;;5.27;74.41
47430;BME280;33181;49.246;7.372;2023-04-10T02:29:18;99296.09;;;5.20;74.54
47430;BME280;33181;49.246;7.372;2023-04-10T02:31:45;99287.56;;;5.17;74.70
47430;BME280;33181;49.246;7.372;2023-04-10T02:34:11;99279.75;;;5.17;74.28
47430;BME280;33181;49.246;7.372;2023-04-10T02:36:38;99283.28;;;5.16;74.64
47430;BME280;33181;49.246;7.372;2023-04-10T02:39:05;99283.28;;;5.16;74.44
47430;BME280;33181;49.246;7.372;2023-04-10T02:41:31;99283.16;;;5.01;75.46
47430;BME280;33181;49.246;7.372;2023-04-10T02:43:57;99281.97;;;4.90;75.54
47430;BME280;33181;49.246;7.372;2023-04-10T02:46:23;99272.25;;;4.93;75.59
47430;BME280;33181;49.246;7.372;2023-04-10T02:48:51;99272.09;;;4.96;75.41
47430;BME280;33181;49.246;7.372;2023-04-10T02:51:17;99274.47;;;5.01;75.75
47430;BME280;33181;49.246;7.372;2023-04-10T02:53:42;99277.06;;;5.01;75.90
47430;BME280;33181;49.246;7.372;2023-04-10T02:56:08;99272.94;;;4.97;75.75
47430;BME280;33181;49.246;7.372;2023-04-10T02:58:36;99271.03;;;5.00;75.72
47430;BME280;33181;49.246;7.372;2023-04-10T03:01:05;99268.41;;;5.00;75.85
47430;BME280;33181;49.246;7.372;2023-04-10T03:03:34;99257.78;;;5.05;75.95
47430;BME280;33181;49.246;7.372;2023-04-10T03:05:59;99267.13;;;5.09;76.00
47430;BME280;33181;49.246;7.372;2023-04-10T03:08:25;99259.94;;;5.14;75.81
47430;BME280;33181;49.246;7.372;2023-04-10T03:10:51;99255.31;;;5.19;75.65
47430;BME280;33181;49.246;7.372;2023-04-10T03:13:17;99269.97;;;5.22;75.05
47430;BME280;33181;49.246;7.372;2023-04-10T03:15:43;99260.47;;;5.21;74.76
47430;BME280;33181;49.246;7.372;2023-04-10T03:18:09;99271.03;;;5.18;75.14
47430;BME280;33181;49.246;7.372;2023-04-10T03:20:35;99273.56;;;5.19;74.79
47430;BME280;33181;49.246;7.372;2023-04-10T03:23:05;99274.94;;;5.09;74.86
47430;BME280;33181;49.246;7.372;2023-04-10T03:25:33;99279.13;;;4.94;75.33
47430;BME280;33181;49.246;7.372;2023-04-10T03:27:59;99269.41;;;4.80;75.63
47430;BME280;33181;49.246;7.372;2023-04-10T03:30:25;99269.47;;;4.79;75.86
47430;BME280;33181;49.246;7.372;2023-04-10T03:32:51;99274.63;;;4.80;75.89
47430;BME280;33181;49.246;7.372;2023-04-10T03:35:17;99283.09;;;4.84;76.12
47430;BME280;33181;49.246;7.372;2023-04-10T03:37:43;99275.00;;;4.90;75.62
47430;BME280;33181;49.246;7.372;2023-04-10T03:40:10;99272.31;;;4.92;75.82
47430;BME280;33181;49.246;7.372;2023-04-10T03:42:36;99280.69;;;4.98;75.94
47430;BME280;33181;49.246;7.372;2023-04-10T03:45:02;99280.53;;;5.01;75.75
47430;BME280;33181;49.246;7.372;2023-04-10T03:47:33;99282.22;;;5.02;75.40
47430;BME280;33181;49.246;7.372;2023-04-10T03:49:59;99274.72;;;4.96;75.15
47430;BME280;33181;49.246;7.372;2023-04-10T03:52:25;99273.47;;;4.86;75.45
47430;BME280;33181;49.246;7.372;2023-04-10T03:54:53;99268.94;;;4.72;75.93
47430;BME280;33181;49.246;7.372;2023-04-10T03:57:19;99266.75;;;4.63;76.65
47430;BME280;33181;49.246;7.372;2023-04-10T03:59:46;99265.88;;;4.64;76.58
47430;BME280;33181;49.246;7.372;2023-04-10T04:02:12;99268.06;;;4.54;77.13
47430;BME280;33181;49.246;7.372;2023-04-10T04:04:39;99269.41;;;4.44;77.29
47430;BME280;33181;49.246;7.372;2023-04-10T04:07:05;99271.44;;;4.37;77.25
47430;BME280;33181;49.246;7.372;2023-04-10T04:09:31;99262.53;;;4.43;77.77
47430;BME280;33181;49.246;7.372;2023-04-10T04:11:57;99265.75;;;4.48;77.35
47430;BME280;33181;49.246;7.372;2023-04-10T04:14:23;99260.13;;;4.57;77.28
47430;BME280;33181;49.246;7.372;2023-04-10T04:16:49;99256.31;;;4.64;76.68
47430;BME280;33181;49.246;7.372;2023-04-10T04:19:15;99257.91;;;4.67;76.55
47430;BME280;33181;49.246;7.372;2023-04-10T04:21:41;99258.66;;;4.69;76.55
47430;BME280;33181;49.246;7.372;2023-04-10T04:24:06;99265.44;;;4.73;76.14
47430;BME280;33181;49.246;7.372;2023-04-10T04:26:32;99269.72;;;4.74;75.80
47430;BME280;33181;49.246;7.372;2023-04-10T04:28:58;99262.03;;;4.71;75.64
47430;BME280;33181;49.246;7.372;2023-04-10T04:31:24;99257.69;;;4.72;75.09
47430;BME280;33181;49.246;7.372;2023-04-10T04:33:54;99257.06;;;4.67;75.44
47430;BME280;33181;49.246;7.372;2023-04-10T04:36:20;99254.53;;;4.65;75.37
47430;BME280;33181;49.246;7.372;2023-04-10T04:38:46;99255.38;;;4.65;75.98
47430;BME280;33181;49.246;7.372;2023-04-10T04:41:11;99252.72;;;4.67;75.49
47430;BME280;33181;49.246;7.372;2023-04-10T04:43:37;99257.97;;;4.65;76.10
47430;BME280;33181;49.246;7.372;2023-04-10T04:46:03;99255.53;;;4.62;75.41
47430;BME280;33181;49.246;7.372;2023-04-10T04:48:29;99254.63;;;4.63;76.02
47430;BME280;33181;49.246;7.372;2023-04-10T04:50:55;99262.56;;;4.60;75.63
47430;BME280;33181;49.246;7.372;2023-04-10T04:53:21;99268.63;;;4.61;75.93
47430;BME280;33181;49.246;7.372;2023-04-10T04:55:47;99264.41;;;4.58;76.21
47430;BME280;33181;49.246;7.372;2023-04-10T04:58:13;99263.47;;;4.59;75.82
47430;BME280;33181;49.246;7.372;2023-04-10T05:00:38;99266.06;;;4.59;76.16
47430;BME280;33181;49.246;7.372;2023-04-10T05:03:04;99271.38;;;4.58;75.89
47430;BME280;33181;49.246;7.372;2023-04-10T05:05:31;99277.47;;;4.57;75.70
47430;BME280;33181;49.246;7.372;2023-04-10T05:07:57;99277.84;;;4.49;75.82
47430;BME280;33181;49.246;7.372;2023-04-10T05:10:22;99267.44;;;4.49;76.51
47430;BME280;33181;49.246;7.372;2023-04-10T05:12:48;99268.97;;;4.53;76.39
47430;BME280;33181;49.246;7.372;2023-04-10T05:15:14;99267.44;;;4.49;76.49
47430;BME280;33181;49.246;7.372;2023-04-10T05:17:40;99263.00;;;4.51;77.03
47430;BME280;33181;49.246;7.372;2023-04-10T05:20:06;99268.81;;;4.56;77.20
47430;BME280;33181;49.246;7.372;2023-04-10T05:22:32;99269.16;;;4.68;76.85
47430;BME280;33181;49.246;7.372;2023-04-10T05:24:58;99265.47;;;4.72;76.01
47430;BME280;33181;49.246;7.372;2023-04-10T05:27:25;99261.91;;;4.74;76.00
47430;BME280;33181;49.246;7.372;2023-04-10T05:29:51;99260.75;;;4.80;75.94
47430;BME280;33181;49.246;7.372;2023-04-10T05:32:17;99268.28;;;4.86;75.78
47430;BME280;33181;49.246;7.372;2023-04-10T05:34:43;99270.44;;;4.95;75.27
47430;BME280;33181;49.246;7.372;2023-04-10T05:37:09;99269.78;;;5.07;74.97
47430;BME280;33181;49.246;7.372;2023-04-10T05:39:37;99265.06;;;5.16;74.99
47430;BME280;33181;49.246;7.372;2023-04-10T05:42:03;99267.50;;;5.36;74.85
47430;BME280;33181;49.246;7.372;2023-04-10T05:44:29;99271.44;;;5.61;74.18
47430;BME280;33181;49.246;7.372;2023-04-10T05:46:55;99273.28;;;5.92;73.94
47430;BME280;33181;49.246;7.372;2023-04-10T05:49:21;99277.50;;;6.59;73.47
47430;BME280;33181;49.246;7.372;2023-04-10T05:51:47;99271.38;;;7.20;70.50
47430;BME280;33181;49.246;7.372;2023-04-10T05:54:15;99270.63;;;7.92;68.34
47430;BME280;33181;49.246;7.372;2023-04-10T05:56:41;99279.16;;;8.36;65.99
47430;BME280;33181;49.246;7.372;2023-04-10T05:59:07;99283.00;;;8.72;64.22
47430;BME280;33181;49.246;7.372;2023-04-10T06:01:33;99278.28;;;9.04;62.95
47430;BME280;33181;49.246;7.372;2023-04-10T06:03:59;99272.56;;;9.25;61.53
47430;BME280;33181;49.246;7.372;2023-04-10T06:06:25;99277.28;;;9.33;60.28
47430;BME280;33181;49.246;7.372;2023-04-10T06:08:51;99270.31;;;9.46;60.30
47430;BME280;33181;49.246;7.372;2023-04-10T06:11:17;99276.69;;;9.80;59.25
47430;BME280;33181;49.246;7.372;2023-04-10T06:13:43;99280.03;;;9.95;58.55
47430;BME280;33181;49.246;7.372;2023-04-10T06:16:09;99269.28;;;10.24;58.03
47430;BME280;33181;49.246;7.372;2023-04-10T06:18:35;99279.47;;;10.41;57.46
47430;BME280;33181;49.246;7.372;2023-04-10T06:21:01;99269.13;;;10.51;57.33
47430;BME280;33181;49.246;7.372;2023-04-10T06:23:27;99269.53;;;10.57;56.41
47430;BME280;33181;49.246;7.372;2023-04-10T06:25:54;99268.63;;;10.70;56.47
47430;BME280;33181;49.246;7.372;2023-04-10T06:28:20;99262.75;;;10.90;56.30
47430;BME280;33181;49.246;7.372;2023-04-10T06:30:46;99255.91;;;11.11;55.88
47430;BME280;33181;49.246;7.372;2023-04-10T06:33:12;99267.06;;;11.26;55.12
47430;BME280;33181;49.246;7.372;2023-04-10T06:35:38;99265.88;;;11.30;54.79
47430;BME280;33181;49.246;7.372;2023-04-10T06:38:03;99272.72;;;11.44;54.92
47430;BME280;33181;49.246;7.372;2023-04-10T06:40:29;99272.19;;;11.74;54.56
47430;BME280;33181;49.246;7.372;2023-04-10T06:42:56;99274.16;;;11.95;53.68
47430;BME280;33181;49.246;7.372;2023-04-10T06:45:22;99276.41;;;12.22;52.52
47430;BME280;33181;49.246;7.372;2023-04-10T06:47:48;99273.97;;;12.52;52.04
47430;BME280;33181;49.246;7.372;2023-04-10T06:50:13;99276.94;;;12.70;51.54
47430;BME280;33181;49.246;7.372;2023-04-10T06:52:39;99274.91;;;12.95;50.84
47430;BME280;33181;49.246;7.372;2023-04-10T06:55:05;99270.81;;;13.34;49.53
47430;BME280;33181;49.246;7.372;2023-04-10T06:57:31;99271.19;;;13.51;48.40
47430;BME280;33181;49.246;7.372;2023-04-10T06:59:57;99263.94;;;13.74;48.06
47430;BME280;33181;49.246;7.372;2023-04-10T07:02:23;99263.56;;;13.78;47.82
47430;BME280;33181;49.246;7.372;2023-04-10T07:04:49;99255.19;;;14.04;47.34
47430;BME280;33181;49.246;7.372;2023-04-10T07:07:15;99261.41;;;14.33;46.60
47430;BME280;33181;49.246;7.372;2023-04-10T07:09:42;99254.25;;;14.55;46.20
47430;BME280;33181;49.246;7.372;2023-04-10T07:12:08;99251.25;;;14.79;44.84
47430;BME280;33181;49.246;7.372;2023-04-10T07:14:34;99249.44;;;14.99;44.90
47430;BME280;33181;49.246;7.372;2023-04-10T07:17:00;99247.75;;;15.27;44.46
47430;BME280;33181;49.246;7.372;2023-04-10T07:19:26;99244.63;;;15.51;43.59
47430;BME280;33181;49.246;7.372;2023-04-10T07:21:51;99239.97;;;15.63;43.01
47430;BME280;33181;49.246;7.372;2023-04-10T07:24:17;99244.53;;;15.90;43.20
47430;BME280;33181;49.246;7.372;2023-04-10T07:26:44;99236.38;;;16.01;42.85
47430;BME280;33181;49.246;7.372;2023-04-10T07:29:11;99234.69;;;16.10;41.80
47430;BME280;33181;49.246;7.372;2023-04-10T07:31:37;99235.63;;;16.18;41.98
47430;BME280;33181;49.246;7.372;2023-04-10T07:34:03;99222.78;;;16.41;42.04
47430;BME280;33181;49.246;7.372;2023-04-10T07:36:29;99221.59;;;16.72;41.33
47430;BME280;33181;49.246;7.372;2023-04-10T07:38:55;99223.25;;;16.73;40.94
47430;BME280;33181;49.246;7.372;2023-04-10T07:41:21;99229.22;;;16.39;41.71
47430;BME280;33181;49.246;7.372;2023-04-10T07:43:47;99223.13;;;16.01;42.20
47430;BME280;33181;49.246;7.372;2023-04-10T07:46:13;99221.28;;;15.84;42.44
47430;BME280;33181;49.246;7.372;2023-04-10T07:48:41;99224.75;;;15.84;42.64
47430;BME280;33181;49.246;7.372;2023-04-10T07:51:08;99234.72;;;16.00;42.73
47430;BME280;33181;49.246;7.372;2023-04-10T07:53:37;99223.25;;;16.09;42.11
47430;BME280;33181;49.246;7.372;2023-04-10T07:56:03;99229.03;;;16.22;41.88
47430;BME280;33181;49.246;7.372;2023-04-10T07:58:29;99228.75;;;16.26;41.51
47430;BME280;33181;49.246;7.372;2023-04-10T08:00:56;99218.81;;;16.55;41.65
47430;BME280;33181;49.246;7.372;2023-04-10T08:03:22;99219.13;;;16.88;40.57
47430;BME280;33181;49.246;7.372;2023-04-10T08:05:50;99217.19;;;17.34;40.85
47430;BME280;33181;49.246;7.372;2023-04-10T08:08:16;99221.34;;;17.63;39.57
47430;BME280;33181;49.246;7.372;2023-04-10T08:10:42;99211.41;;;17.91;39.25
47430;BME280;33181;49.246;7.372;2023-04-10T08:13:09;99208.53;;;18.26;39.31
47430;BME280;33181;49.246;7.372;2023-04-10T08:15:34;99214.38;;;18.38;38.69
47430;BME280;33181;49.246;7.372;2023-04-10T08:18:00;99215.31;;;18.21;38.40
47430;BME280;33181;49.246;7.372;2023-04-10T08:20:26;99209.34;;;18.27;38.53
47430;BME280;33181;49.246;7.372;2023-04-10T08:22:53;99212.69;;;18.37;38.50
47430;BME280;33181;49.246;7.372;2023-04-10T08:25:19;99207.94;;;17.98;37.31
47430;BME280;33181;49.246;7.372;2023-04-10T08:27:45;99206.63;;;17.76;37.86
47430;BME280;33181;49.246;7.372;2023-04-10T08:30:10;99207.22;;;17.36;37.26
47430;BME280;33181;49.246;7.372;2023-04-10T08:32:38;99194.50;;;16.78;38.84
47430;BME280;33181;49.246;7.372;2023-04-10T08:35:04;99197.75;;;16.26;38.51
47430;BME280;33181;49.246;7.372;2023-04-10T08:37:30;99194.88;;;15.55;38.63
47430;BME280;33181;49.246;7.372;2023-04-10T08:39:57;99191.50;;;15.05;40.39
47430;BME280;33181;49.246;7.372;2023-04-10T08:42:23;99192.84;;;15.19;40.95
47430;BME280;33181;49.246;7.372;2023-04-10T08:44:49;99188.13;;;15.23;40.73
47430;BME280;33181;49.246;7.372;2023-04-10T08:47:20;99184.25;;;15.07;40.85
47430;BME280;33181;49.246;7.372;2023-04-10T08:50:01;99186.22;;;14.86;40.29
47430;BME280;33181;49.246;7.372;2023-04-10T08:52:29;99181.63;;;14.69;40.31
47430;BME280;33181;49.246;7.372;2023-04-10T08:54:59;99180.22;;;15.13;40.59
47430;BME280;33181;49.246;7.372;2023-04-10T08:57:28;99185.91;;;15.09;40.37
47430;BME280;33181;49.246;7.372;2023-04-10T08:59:54;99182.59;;;14.87;40.22
47430;BME280;33181;49.246;7.372;2023-04-10T09:02:20;99180.34;;;15.12;39.74
47430;BME280;33181;49.246;7.372;2023-04-10T09:04:50;99170.19;;;15.17;39.15
47430;BME280;33181;49.246;7.372;2023-04-10T09:07:17;99168.34;;;15.17;39.09
47430;BME280;33181;49.246;7.372;2023-04-10T09:09:43;99167.25;;;15.20;39.75
47430;BME280;33181;49.246;7.372;2023-04-10T09:12:11;99170.75;;;15.58;38.99
47430;BME280;33181;49.246;7.372;2023-04-10T09:14:40;99167.03;;;15.41;39.00
47430;BME280;33181;49.246;7.372;2023-04-10T09:17:24;99161.34;;;15.36;38.25
47430;BME280;33181;49.246;7.372;2023-04-10T09:19:53;99150.19;;;15.42;39.26
47430;BME280;33181;49.246;7.372;2023-04-10T09:22:34;99145.88;;;15.78;38.07
47430;BME280;33181;49.246;7.372;2023-04-10T09:25:02;99153.41;;;16.01;36.61
47430;BME280;33181;49.246;7.372;2023-04-10T09:27:36;99143.25;;;16.24;36.63
47430;BME280;33181;49.246;7.372;2023-04-10T09:30:04;99134.91;;;16.36;36.45
47430;BME280;33181;49.246;7.372;2023-04-10T09:32:42;99136.59;;;16.55;36.41
47430;BME280;33181;49.246;7.372;2023-04-10T09:35:13;99138.75;;;16.42;35.87
47430;BME280;33181;49.246;7.372;2023-04-10T09:37:42;99134.69;;;16.65;35.99
47430;BME280;33181;49.246;7.372;2023-04-10T09:40:24;99133.97;;;16.63;35.71
47430;BME280;33181;49.246;7.372;2023-04-10T09:42:51;99136.34;;;16.84;35.75
47430;BME280;33181;49.246;7.372;2023-04-10T09:45:17;99139.53;;;16.88;35.86
47430;BME280;33181;49.246;7.372;2023-04-10T09:48:07;99121.25;;;16.67;35.83
47430;BME280;33181;49.246;7.372;2023-04-10T09:50:37;99123.91;;;16.67;35.87
47430;BME280;33181;49.246;7.372;2023-04-10T09:53:03;99117.06;;;16.64;35.62
47430;BME280;33181;49.246;7.372;2023-04-10T09:55:29;99116.25;;;16.64;35.36
47430;BME280;33181;49.246;7.372;2023-04-10T09:57:56;99113.09;;;16.42;35.57
47430;BME280;33181;49.246;7.372;2023-04-10T10:00:23;99108.41;;;16.36;35.25
47430;BME280;33181;49.246;7.372;2023-04-10T10:02:50;99100.94;;;16.58;35.81
47430;BME280;33181;49.246;7.372;2023-04-10T10:05:17;99103.16;;;16.80;35.60
47430;BME280;33181;49.246;7.372;2023-04-10T10:07:44;99110.13;;;16.28;35.35
47430;BME280;33181;49.246;7.372;2023-04-10T10:10:11;99102.03;;;16.11;36.01
47430;BME280;33181;49.246;7.372;2023-04-10T10:12:47;99094.72;;;15.78;36.08
47430;BME280;33181;49.246;7.372;2023-04-10T10:15:49;99093.06;;;15.94;36.81
47430;BME280;33181;49.246;7.372;2023-04-10T10:20:58;99092.56;;;16.09;36.32
47430;BME280;33181;49.246;7.372;2023-04-10T10:23:25;99092.84;;;16.41;36.61
47430;BME280;33181;49.246;7.372;2023-04-10T10:25:53;99094.50;;;16.60;36.19
47430;BME280;33181;49.246;7.372;2023-04-10T10:28:20;99100.97;;;16.40;36.26
47430;BME280;33181;49.246;7.372;2023-04-10T10:30:47;99093.25;;;16.29;35.44
47430;BME280;33181;49.246;7.372;2023-04-10T10:33:14;99094.38;;;16.26;36.08
47430;BME280;33181;49.246;7.372;2023-04-10T10:35:40;99088.47;;;16.50;36.95
47430;BME280;33181;49.246;7.372;2023-04-10T10:38:06;99092.22;;;16.83;35.96
47430;BME280;33181;49.246;7.372;2023-04-10T10:46:08;99079.00;;;17.18;36.57
47430;BME280;33181;49.246;7.372;2023-04-10T10:48:36;99072.81;;;17.09;36.09
47430;BME280;33181;49.246;7.372;2023-04-10T10:51:02;99071.88;;;16.92;36.60
47430;BME280;33181;49.246;7.372;2023-04-10T10:53:33;99079.59;;;17.03;36.66
47430;BME280;33181;49.246;7.372;2023-04-10T10:58:55;99079.56;;;17.29;36.88
47430;BME280;33181;49.246;7.372;2023-04-10T11:01:24;99074.63;;;17.43;36.33
47430;BME280;33181;49.246;7.372;2023-04-10T11:03:50;99071.69;;;17.54;36.57
47430;BME280;33181;49.246;7.372;2023-04-10T11:06:21;99064.75;;;17.61;35.49
47430;BME280;33181;49.246;7.372;2023-04-10T11:09:06;99057.25;;;18.07;35.27
47430;BME280;33181;49.246;7.372;2023-04-10T11:12:00;99055.22;;;17.93;35.78
47430;BME280;33181;49.246;7.372;2023-04-10T11:14:26;99054.63;;;17.56;34.99
47430;BME280;33181;49.246;7.372;2023-04-10T11:16:54;99043.34;;;17.63;35.34
47430;BME280;33181;49.246;7.372;2023-04-10T11:19:20;99041.78;;;17.52;35.51
47430;BME280;33181;49.246;7.372;2023-04-10T11:22:06;99039.47;;;17.91;35.34
47430;BME280;33181;49.246;7.372;2023-04-10T11:24:55;99027.00;;;18.08;34.25
47430;BME280;33181;49.246;7.372;2023-04-10T11:27:46;99020.50;;;18.60;34.10
47430;BME280;33181;49.246;7.372;2023-04-10T11:30:34;99026.50;;;18.21;34.97
47430;BME280;33181;49.246;7.372;2023-04-10T11:33:02;99024.84;;;18.12;34.84
47430;BME280;33181;49.246;7.372;2023-04-10T11:35:29;99018.34;;;18.06;35.18
47430;BME280;33181;49.246;7.372;2023-04-10T11:38:13;99017.69;;;17.37;35.71
47430;BME280;33181;49.246;7.372;2023-04-10T11:41:00;99015.69;;;17.90;36.26
47430;BME280;33181;49.246;7.372;2023-04-10T11:43:27;99006.56;;;18.00;36.90
47430;BME280;33181;49.246;7.372;2023-04-10T11:46:06;99022.97;;;17.79;36.35
47430;BME280;33181;49.246;7.372;2023-04-10T11:48:32;99025.41;;;17.56;35.72
47430;BME280;33181;49.246;7.372;2023-04-10T11:51:05;99006.06;;;17.89;36.76
47430;BME280;33181;49.246;7.372;2023-04-10T11:53:31;99009.06;;;18.02;35.68
47430;BME280;33181;49.246;7.372;2023-04-10T11:55:57;99004.56;;;18.27;35.80
47430;BME280;33181;49.246;7.372;2023-04-10T11:58:28;99009.06;;;18.43;35.46
47430;BME280;33181;49.246;7.372;2023-04-10T12:03:40;98996.59;;;18.43;35.81
47430;BME280;33181;49.246;7.372;2023-04-10T12:06:12;98999.09;;;18.04;35.84
47430;BME280;33181;49.246;7.372;2023-04-10T12:08:43;98988.78;;;17.85;36.70
47430;BME280;33181;49.246;7.372;2023-04-10T12:11:33;98981.66;;;18.01;37.00
47430;BME280;33181;49.246;7.372;2023-04-10T12:13:59;98983.16;;;18.04;36.94
47430;BME280;33181;49.246;7.372;2023-04-10T12:16:25;98987.47;;;18.29;35.04
47430;BME280;33181;49.246;7.372;2023-04-10T12:18:52;98982.13;;;17.80;35.11
47430;BME280;33181;49.246;7.372;2023-04-10T12:21:18;98980.94;;;17.75;36.76
47430;BME280;33181;49.246;7.372;2023-04-10T12:23:44;98981.31;;;17.88;36.27
47430;BME280;33181;49.246;7.372;2023-04-10T12:26:12;98975.84;;;17.98;35.93
47430;BME280;33181;49.246;7.372;2023-04-10T12:28:40;98969.84;;;17.79;36.12
47430;BME280;33181;49.246;7.372;2023-04-10T12:31:07;98969.00;;;17.79;37.22
47430;BME280;33181;49.246;7.372;2023-04-10T12:33:33;98966.19;;;17.89;36.41
47430;BME280;33181;49.246;7.372;2023-04-10T12:36:02;98955.75;;;18.03;35.38
47430;BME280;33181;49.246;7.372;2023-04-10T12:38:42;98955.41;;;18.06;35.79
47430;BME280;33181;49.246;7.372;2023-04-10T12:41:10;98962.72;;;17.88;36.64
47430;BME280;33181;49.246;7.372;2023-04-10T12:43:40;98958.19;;;17.80;37.17
47430;BME280;33181;49.246;7.372;2023-04-10T12:46:08;98954.22;;;17.93;37.06
47430;BME280;33181;49.246;7.372;2023-04-10T12:48:35;98949.09;;;17.91;36.43
47430;BME280;33181;49.246;7.372;2023-04-10T12:51:01;98946.06;;;17.78;37.51
47430;BME280;33181;49.246;7.372;2023-04-10T12:53:28;98943.09;;;17.89;37.63
47430;BME280;33181;49.246;7.372;2023-04-10T12:58:25;98944.75;;;17.98;36.71
47430;BME280;33181;49.246;7.372;2023-04-10T13:01:06;98956.06;;;18.17;36.78
47430;BME280;33181;49.246;7.372;2023-04-10T13:03:36;98951.06;;;17.89;36.82
47430;BME280;33181;49.246;7.372;2023-04-10T13:06:04;98951.91;;;18.14;37.07
47430;BME280;33181;49.246;7.372;2023-04-10T13:08:30;98945.72;;;18.22;36.37
47430;BME280;33181;49.246;7.372;2023-04-10T13:11:00;98936.22;;;18.44;37.65
47430;BME280;33181;49.246;7.372;2023-04-10T13:13:29;98932.28;;;18.32;36.78
47430;BME280;33181;49.246;7.372;2023-04-10T13:15:58;98935.75;;;18.40;37.91
47430;BME280;33181;49.246;7.372;2023-04-10T13:18:24;98932.22;;;18.56;37.08
47430;BME280;33181;49.246;7.372;2023-04-10T13:20:50;98929.38;;;18.74;36.84
47430;BME280;33181;49.246;7.372;2023-04-10T13:23:16;98926.44;;;18.36;37.45
47430;BME280;33181;49.246;7.372;2023-04-10T13:25:42;98920.44;;;18.42;37.68
47430;BME280;33181;49.246;7.372;2023-04-10T13:28:08;98924.56;;;18.53;37.59
47430;BME280;33181;49.246;7.372;2023-04-10T13:30:38;98923.41;;;18.64;37.31
47430;BME280;33181;49.246;7.372;2023-04-10T13:33:05;98922.22;;;18.66;37.79
47430;BME280;33181;49.246;7.372;2023-04-10T13:35:30;98911.81;;;18.96;39.00
47430;BME280;33181;49.246;7.372;2023-04-10T13:37:57;98907.88;;;18.84;37.63